aviador You're here:

YWGT Decoded Metar

WANGARATTA ARP in _UNIDENTIFIED
Report Time2017-11-24 02:00:00
UTC Time2017-11-24 02:12:02
Flight Rules vfr VFR
Wind360° at 08 kt
W.Decomp.*RWY 36: 7.9 kt HW 1.5 kt LCW
RWY 27: 1.5 kt HW 7.9 kt RCW
Visibility9999 m
Phenomena:N/A
Clouds:N/A
Expected CloudBase > 8,800 ft AGL from Temp-Dew spread
CeilingNone
Temp30°C (ISA +16)
Dew Point08°C (25% RH)
Heat Index28.4°C
AAT26.6°C
QNH1014 hPa
Density Alt2,448 ft
Elevation502 ft
Report Wrong Elevation
Raw Report
YWGT 240200Z AUTO 36008KT 9999 // NCD 30/08 Q1014=

Extra information for YWGT:More info

Metar Taf Metar & Taf Last 4 Metars F.Rules Stats Wind Profile Meteogram Temp Stats Airport Information Weather charts Add Link Nearby VenuesMetar ALERT Operation Metar Decoded Social comments